Time;durP1;ratioP1;P1;durP2;ratioP2;P2;SDS_P1;SDS_P2;PMS_P1;PMS_P2;Temp;Humidity;BMP_temperature;BMP_pressure;BME280_temperature;BME280_humidity;BME280_pressure;Samples;Min_cycle;Max_cycle;Signal;HPM_P1;HPM_P2
2024/03/18 00:02:09;;;;;;;16.58;7.95;;;3.70;99.90;;;;;;5112676;28;20024;-73
2024/03/18 00:04:34;;;;;;;;;;;3.60;99.90;;;;;;5094711;28;20016;-73
2024/03/18 00:07:00;;;;;;;18.75;8.93;;;3.60;99.90;;;;;;5094270;28;20396;-73
2024/03/18 00:09:26;;;;;;;;;;;3.60;99.90;;;;;;5094854;28;20076;-74
2024/03/18 00:11:52;;;;;;;14.32;7.85;;;3.50;99.90;;;;;;5094570;28;19919;-73
2024/03/18 00:14:17;;;;;;;;;;;3.50;99.90;;;;;;5113083;28;20054;-73
2024/03/18 00:16:43;;;;;;;15.50;8.77;;;3.40;99.90;;;;;;5094274;28;19945;-74
2024/03/18 00:19:09;;;;;;;;;;;3.40;99.90;;;;;;5112763;28;20074;-73
2024/03/18 00:21:36;;;;;;;17.35;8.75;;;3.40;99.90;;;;;;5114206;28;19907;-73
2024/03/18 00:24:02;;;;;;;18.25;9.32;;;3.30;99.90;;;;;;5116325;28;20036;-74
2024/03/18 00:26:27;;;;;;;;;;;3.30;99.90;;;;;;5119827;28;20100;-72
2024/03/18 00:28:53;;;;;;;20.42;9.57;;;3.30;99.90;;;;;;5117531;28;19908;-72
2024/03/18 00:31:18;;;;;;;;;;;3.40;99.90;;;;;;5097272;28;20111;-73
2024/03/18 00:33:44;;;;;;;13.85;7.38;;;3.20;99.90;;;;;;5112038;28;19905;-72
2024/03/18 00:36:09;;;;;;;;;;;3.20;99.90;;;;;;5094118;28;20034;-73
2024/03/18 00:38:36;;;;;;;16.33;5.68;;;3.10;99.90;;;;;;5111998;28;19912;-74
2024/03/18 00:43:45;;;;;;;14.00;4.68;;;3.00;99.90;;;;;;5112115;28;20042;-72
2024/03/18 00:46:11;;;;;;;;;;;3.00;99.90;;;;;;5112113;28;20039;-72
2024/03/18 00:48:37;;;;;;;11.43;4.45;;;3.00;99.90;;;;;;5111767;28;19908;-73
2024/03/18 00:51:02;;;;;;;;;;;3.00;99.90;;;;;;5093533;28;20077;-72
2024/03/18 00:53:28;;;;;;;16.15;4.95;;;3.00;99.90;;;;;;5111708;28;19914;-73
2024/03/18 00:55:53;;;;;;;;;;;2.90;99.90;;;;;;5112165;28;20032;-71
2024/03/18 00:58:19;;;;;;;11.38;4.45;;;2.90;99.90;;;;;;5110302;28;20372;-73
2024/03/18 01:00:45;;;;;;;;;;;3.00;99.90;;;;;;5093555;28;20055;-73
2024/03/18 01:03:12;;;;;;;9.77;4.35;;;2.90;99.90;;;;;;5111431;28;20387;-73
2024/03/18 01:05:38;;;;;;;11.13;4.15;;;2.90;99.90;;;;;;5111268;28;20089;-73
2024/03/18 01:08:04;;;;;;;;;;;2.80;99.90;;;;;;5093494;28;20032;-72
2024/03/18 01:10:30;;;;;;;10.68;4.68;;;2.80;99.90;;;;;;5093261;28;19912;-71
2024/03/18 01:12:55;;;;;;;;;;;2.70;99.90;;;;;;5093325;28;20522;-73
2024/03/18 01:15:22;;;;;;;11.65;5.68;;;2.70;99.90;;;;;;5111209;28;19953;-74
2024/03/18 01:17:47;;;;;;;8.45;5.03;;;2.70;99.90;;;;;;5092889;28;20035;-73
2024/03/18 01:20:16;;;;;;;;;;;2.60;99.90;;;;;;5093200;28;20565;-73
2024/03/18 01:22:42;;;;;;;11.82;5.47;;;2.60;99.90;;;;;;5092833;28;19933;-72
2024/03/18 01:25:13;;;;;;;;;;;2.50;99.90;;;;;;5111263;28;20063;-73
2024/03/18 01:27:39;;;;;;;9.82;4.88;;;2.50;99.90;;;;;;5092499;28;19907;-73
2024/03/18 01:30:10;;;;;;;16.75;5.15;;;2.50;99.90;;;;;;5092721;28;20063;-72
2024/03/18 01:32:37;;;;;;;11.25;4.15;;;2.40;99.90;;;;;;5110734;28;20020;-73
2024/03/18 01:35:04;;;;;;;10.93;4.90;;;2.50;99.90;;;;;;5110773;28;20019;-73
2024/03/18 01:37:30;;;;;;;10.98;4.68;;;2.40;99.90;;;;;;5110817;28;20016;-72
2024/03/18 01:39:56;;;;;;;;;;;2.50;99.90;;;;;;5110864;28;20524;-74
2024/03/18 01:42:22;;;;;;;10.00;3.75;;;2.50;99.90;;;;;;5110775;28;20409;-73
2024/03/18 01:44:51;;;;;;;;;;;2.70;99.90;;;;;;5092800;28;20023;-73
2024/03/18 01:47:17;;;;;;;9.02;3.85;;;2.60;99.90;;;;;;5110419;28;19916;-73
2024/03/18 01:49:43;;;;;;;;;;;2.60;99.90;;;;;;5092778;28;20022;-73
2024/03/18 01:52:08;;;;;;;11.57;5.68;;;2.50;99.90;;;;;;5092351;28;19904;-73
2024/03/18 01:54:34;;;;;;;;;;;2.50;99.90;;;;;;5092590;28;20153;-73
2024/03/18 01:56:59;;;;;;;10.73;4.20;;;2.40;99.90;;;;;;5092101;28;19911;-73
2024/03/18 01:59:25;;;;;;;;;;;2.40;99.90;;;;;;5092678;28;20037;-72
2024/03/18 02:01:51;;;;;;;8.00;3.13;;;2.40;99.90;;;;;;5110340;28;19948;-72
2024/03/18 02:04:16;;;;;;;;;;;2.40;99.90;;;;;;5092287;28;20061;-72
2024/03/18 02:06:42;;;;;;;7.38;3.28;;;2.40;99.90;;;;;;5091869;28;19916;-72
2024/03/18 02:09:08;;;;;;;;;;;2.40;99.90;;;;;;5092665;28;20535;-73
2024/03/18 02:11:34;;;;;;;8.13;3.55;;;2.50;99.90;;;;;;5109732;28;19990;-73
2024/03/18 02:13:59;;;;;;;;;;;2.60;99.90;;;;;;5092386;28;20122;-73
2024/03/18 02:16:27;;;;;;;7.80;2.90;;;2.70;99.90;;;;;;5091845;28;19998;-72
2024/03/18 02:18:53;;;;;;;8.77;3.47;;;2.80;99.90;;;;;;5110087;28;20475;-73
2024/03/18 02:21:18;;;;;;;;;;;2.80;99.90;;;;;;5109026;28;20062;-73
2024/03/18 02:23:44;;;;;;;10.55;3.80;;;2.80;99.90;;;;;;5109816;28;19923;-73
2024/03/18 02:26:10;;;;;;;;;;;2.80;99.90;;;;;;5092087;28;20039;-72
2024/03/18 02:28:42;;;;;;;8.00;3.30;;;2.80;99.90;;;;;;5109875;28;19911;-73
2024/03/18 02:31:07;;;;;;;5.15;2.28;;;2.90;99.90;;;;;;5109831;28;20027;-71
2024/03/18 02:33:35;;;;;;;;;;;2.90;99.90;;;;;;5092145;28;20378;-72
2024/03/18 02:36:01;;;;;;;;;;;2.90;99.90;;;;;;5109337;28;20283;-73
2024/03/18 02:38:27;;;;;;;7.03;2.92;;;3.00;99.90;;;;;;5110007;28;19936;-72
2024/03/18 02:40:53;;;;;;;;;;;3.10;99.90;;;;;;5092578;28;20122;-73
2024/03/18 02:43:18;;;;;;;28.00;12.20;;;3.10;99.90;;;;;;5109324;28;19904;-72
2024/03/18 02:45:44;;;;;;;;;;;3.10;99.90;;;;;;5091923;28;20522;-73
2024/03/18 02:48:09;;;;;;;17.20;9.15;;;3.20;99.90;;;;;;5108668;28;20467;-72
2024/03/18 02:50:35;;;;;;;;;;;3.20;99.90;;;;;;5091978;28;20092;-73
2024/03/18 02:53:01;;;;;;;15.35;7.22;;;3.20;99.90;;;;;;5109761;28;19904;-73
2024/03/18 02:55:26;;;;;;;;;;;3.20;99.90;;;;;;5091897;28;20027;-72
2024/03/18 02:57:52;;;;;;;12.20;5.75;;;3.20;99.90;;;;;;5109699;28;19911;-73
2024/03/18 03:00:17;;;;;;;;;;;3.10;99.90;;;;;;5110054;28;20062;-73
2024/03/18 03:02:43;;;;;;;10.73;4.53;;;3.10;99.90;;;;;;5109694;28;20464;-76
2024/03/18 03:05:09;;;;;;;;;;;3.10;99.90;;;;;;5091662;28;20134;-72
2024/03/18 03:07:35;;;;;;;6.88;3.38;;;3.20;99.90;;;;;;5110418;28;19911;-73
2024/03/18 03:10:03;;;;;;;;;;;3.30;99.90;;;;;;5116765;28;20035;-74
2024/03/18 03:12:30;;;;;;;9.95;3.33;;;3.30;99.90;;;;;;5113403;28;19903;-73
2024/03/18 03:14:56;;;;;;;5.38;2.67;;;3.40;99.90;;;;;;5093279;28;20030;-73
2024/03/18 03:17:24;;;;;;;;;;;3.40;99.90;;;;;;5101203;28;20031;-76
2024/03/18 03:19:51;;;;;;;7.18;2.78;;;3.50;99.90;;;;;;5099206;28;19912;-72
2024/03/18 03:22:19;;;;;;;7.03;3.75;;;3.50;99.90;;;;;;5113134;28;20024;-73
2024/03/18 03:24:48;;;;;;;7.82;3.42;;;3.50;99.90;;;;;;5093543;28;20508;-72
2024/03/18 03:27:15;;;;;;;7.00;3.40;;;3.50;99.90;;;;;;5113419;28;20419;-73
2024/03/18 03:29:42;;;;;;;9.70;4.30;;;3.50;99.90;;;;;;5112066;28;20035;-73
2024/03/18 03:32:10;;;;;;;16.20;4.95;;;3.50;99.90;;;;;;5113447;28;20152;-73
2024/03/18 03:34:37;;;;;;;14.15;6.25;;;3.40;99.90;;;;;;5113149;28;20573;-73
2024/03/18 03:37:03;;;;;;;21.23;9.32;;;3.40;99.90;;;;;;5113151;28;20020;-72
2024/03/18 03:39:29;;;;;;;19.70;8.27;;;3.30;99.90;;;;;;5113164;28;20046;-73
2024/03/18 03:41:55;;;;;;;;;;;3.30;99.90;;;;;;5095325;28;20027;-73
2024/03/18 03:44:21;;;;;;;13.40;5.13;;;3.20;99.90;;;;;;5094684;28;19903;-73
2024/03/18 03:46:50;;;;;;;;;;;3.10;99.90;;;;;;5111964;28;20044;-72
2024/03/18 03:49:16;;;;;;;9.88;3.95;;;3.00;99.90;;;;;;5111601;28;19915;-72
2024/03/18 03:51:42;;;;;;;9.68;4.07;;;3.00;99.90;;;;;;5112820;28;20031;-71
2024/03/18 03:54:08;;;;;;;;;;;3.00;99.90;;;;;;5113342;28;20239;-72
2024/03/18 03:56:33;;;;;;;10.10;4.28;;;2.90;99.90;;;;;;5094453;28;19907;-72
2024/03/18 03:58:59;;;;;;;;;;;2.80;99.90;;;;;;5094806;28;20442;-73
2024/03/18 04:01:25;;;;;;;9.65;4.40;;;2.80;99.90;;;;;;5094508;28;19915;-72
2024/03/18 04:03:50;;;;;;;;;;;2.70;99.90;;;;;;5112981;28;20077;-71
2024/03/18 04:06:16;;;;;;;10.52;5.43;;;2.70;99.90;;;;;;5094282;28;20007;-73
2024/03/18 04:08:41;;;;;;;;;;;2.60;99.90;;;;;;5094700;28;20054;-72
2024/03/18 04:11:07;;;;;;;15.48;7.85;;;2.60;99.90;;;;;;5112693;28;19998;-72
2024/03/18 04:13:33;;;;;;;;;;;2.50;99.90;;;;;;5113289;28;20051;-72
2024/03/18 04:15:59;;;;;;;13.57;7.82;;;2.40;99.90;;;;;;5112373;28;19904;-73
2024/03/18 04:18:25;;;;;;;17.88;7.25;;;2.40;99.90;;;;;;5112438;28;20139;-74
2024/03/18 04:20:51;;;;;;;;;;;2.30;99.90;;;;;;5094551;28;20043;-73
2024/03/18 04:23:17;;;;;;;15.93;4.50;;;2.30;99.90;;;;;;5093734;28;19908;-73
2024/03/18 04:25:42;;;;;;;;;;;2.30;99.90;;;;;;5094349;28;20105;-73
2024/03/18 04:28:08;;;;;;;7.97;3.40;;;2.20;99.90;;;;;;5093853;28;20498;-73
2024/03/18 04:30:34;;;;;;;;;;;2.10;99.90;;;;;;5094177;28;20023;-73
2024/03/18 04:33:00;;;;;;;6.97;3.40;;;2.00;99.90;;;;;;5112142;28;19961;-73
2024/03/18 04:35:26;;;;;;;8.30;3.15;;;2.00;99.90;;;;;;5111525;28;20066;-73
2024/03/18 04:37:54;;;;;;;;;;;2.00;99.90;;;;;;5112412;28;20043;-72
2024/03/18 04:40:21;;;;;;;7.60;3.00;;;2.10;99.90;;;;;;5093551;28;19904;-73
2024/03/18 04:42:47;;;;;;;12.02;3.25;;;1.90;99.90;;;;;;5111835;28;20070;-73
2024/03/18 04:45:17;;;;;;;14.57;4.00;;;1.90;99.90;;;;;;5093263;28;20032;-72
2024/03/18 04:47:50;;;;;;;16.45;4.85;;;1.80;99.90;;;;;;5111853;28;20087;-72
2024/03/18 04:50:20;;;;;;;11.18;5.18;;;1.80;99.90;;;;;;5093313;28;20039;-73
2024/03/18 04:52:47;;;;;;;15.75;5.68;;;1.70;99.90;;;;;;5093628;28;20027;-72
2024/03/18 04:55:13;;;;;;;15.60;5.68;;;1.70;99.90;;;;;;5093417;28;20761;-73
2024/03/18 04:57:39;;;;;;;;;;;1.60;99.90;;;;;;5093979;28;20027;-73
2024/03/18 05:00:06;;;;;;;15.73;6.25;;;1.70;99.90;;;;;;5112517;28;19912;-72
2024/03/18 05:02:32;;;;;;;13.98;5.28;;;1.60;99.90;;;;;;5112414;28;20027;-73
2024/03/18 05:04:58;;;;;;;;;;;1.60;99.90;;;;;;5112084;28;20024;-73
2024/03/18 05:07:24;;;;;;;13.68;4.43;;;1.60;99.90;;;;;;5109804;28;20432;-72
2024/03/18 05:09:52;;;;;;;;;;;1.60;99.90;;;;;;5111648;28;20397;-72
2024/03/18 05:12:18;;;;;;;19.88;7.40;;;1.70;99.90;;;;;;5092984;28;19968;-73
2024/03/18 05:14:44;;;;;;;;;;;1.80;99.90;;;;;;5111595;28;20024;-72
2024/03/18 05:17:09;;;;;;;15.15;5.38;;;1.70;99.90;;;;;;5111374;28;19911;-73
2024/03/18 05:19:35;;;;;;;;;;;1.70;99.90;;;;;;5111520;28;20462;-73
2024/03/18 05:22:00;;;;;;;15.30;5.43;;;1.70;99.90;;;;;;5109617;28;19914;-73
2024/03/18 05:24:26;;;;;;;;;;;1.80;99.90;;;;;;5111365;28;20412;-72
2024/03/18 05:26:52;;;;;;;19.98;7.50;;;1.90;99.90;;;;;;5109729;28;19942;-73
2024/03/18 05:29:18;;;;;;;;;;;1.90;99.90;;;;;;5093155;28;20024;-72
2024/03/18 05:31:45;;;;;;;16.10;7.03;;;1.90;99.90;;;;;;5110064;28;19907;-72
2024/03/18 05:34:11;;;;;;;18.48;5.95;;;2.00;99.90;;;;;;5110927;28;20015;-72
2024/03/18 05:36:37;;;;;;;;;;;2.00;99.90;;;;;;5092979;28;20024;-73
2024/03/18 05:39:03;;;;;;;11.25;4.55;;;2.20;99.90;;;;;;5092567;28;20395;-74
2024/03/18 05:41:29;;;;;;;11.13;4.97;;;2.20;99.90;;;;;;5092254;28;20500;-73
2024/03/18 05:43:54;;;;;;;;;;;2.30;99.90;;;;;;5093461;28;20067;-73
2024/03/18 05:46:21;;;;;;;8.80;3.60;;;2.40;99.90;;;;;;5109932;28;19919;-73
2024/03/18 05:48:47;;;;;;;6.43;2.92;;;2.60;99.90;;;;;;5110202;28;20106;-73
2024/03/18 05:51:13;;;;;;;7.32;2.03;;;2.80;99.90;;;;;;5092441;28;20034;-73
2024/03/18 05:53:39;;;;;;;;;;;3.10;99.90;;;;;;5111204;28;20023;-74
2024/03/18 05:56:06;;;;;;;9.27;1.80;;;3.40;99.90;;;;;;5092448;28;20515;-73
2024/03/18 05:58:39;;;;;;;6.15;1.33;;;3.90;99.90;;;;;;5110510;28;20298;-73
2024/03/18 06:01:10;;;;;;;8.55;2.40;;;4.40;99.90;;;;;;5110683;28;20027;-72
2024/03/18 06:03:40;;;;;;;20.02;8.65;;;4.90;99.90;;;;;;5109666;28;20542;-73
2024/03/18 06:06:07;;;;;;;21.55;7.20;;;5.40;99.90;;;;;;5092422;28;20163;-72
2024/03/18 06:08:33;;;;;;;10.50;3.85;;;5.80;99.90;;;;;;5114597;28;20028;-73
2024/03/18 06:10:59;;;;;;;6.45;2.38;;;6.20;99.90;;;;;;5116943;28;20039;-72
2024/03/18 06:13:25;;;;;;;;;;;6.60;99.90;;;;;;5115666;28;20080;-74
2024/03/18 06:15:51;;;;;;;21.13;7.03;;;6.90;99.90;;;;;;5109409;28;20406;-73
2024/03/18 06:18:17;;;;;;;42.08;19.17;;;7.10;99.90;;;;;;5110192;28;20032;-73
2024/03/18 06:20:43;;;;;;;;;;;7.40;99.90;;;;;;5092478;28;20038;-73
2024/03/18 06:23:16;;;;;;;30.50;12.10;;;7.70;99.90;;;;;;5092374;28;19990;-73
2024/03/18 06:26:03;;;;;;;30.52;13.57;;;8.00;99.90;;;;;;5110022;28;20046;-73
2024/03/18 06:28:30;;;;;;;31.25;12.10;;;8.30;99.90;;;;;;5077807;28;20496;-74
2024/03/18 06:30:59;;;;;;;19.98;8.13;;;8.60;99.90;;;;;;5110110;28;20023;-74
2024/03/18 06:33:26;;;;;;;10.77;3.65;;;9.00;99.00;;;;;;5110292;28;20036;-72
2024/03/18 06:35:56;;;;;;;14.88;3.95;;;9.40;95.60;;;;;;5109883;28;20365;-73
2024/03/18 06:38:22;;;;;;;6.53;2.05;;;9.80;92.50;;;;;;5091689;28;20557;-72
2024/03/18 06:40:48;;;;;;;6.18;1.85;;;10.30;88.30;;;;;;5109827;28;20113;-72
2024/03/18 06:43:14;;;;;;;;;;;10.70;79.90;;;;;;5110313;28;20051;-73
2024/03/18 06:45:40;;;;;;;5.07;2.53;;;11.30;75.70;;;;;;5109795;28;20071;-74
2024/03/18 06:48:06;;;;;;;7.25;2.05;;;11.70;72.10;;;;;;5109870;28;20032;-73
2024/03/18 06:50:34;;;;;;;;;;;12.20;68.40;;;;;;5092226;28;20157;-73
2024/03/18 06:52:59;;;;;;;9.63;2.20;;;12.70;63.50;;;;;;5091682;28;19915;-74
2024/03/18 06:55:25;;;;;;;;;;;13.00;61.10;;;;;;5110468;28;20019;-71
2024/03/18 06:57:51;;;;;;;7.38;2.15;;;13.40;58.50;;;;;;5092398;28;19947;-73
2024/03/18 07:00:20;;;;;;;8.98;1.45;;;14.00;56.80;;;;;;5095772;28;20035;-75
2024/03/18 07:02:49;;;;;;;7.47;1.52;;;14.40;54.00;;;;;;5113797;28;20118;-74
2024/03/18 07:05:16;;;;;;;5.45;1.67;;;14.80;52.10;;;;;;5113618;28;20038;-73
2024/03/18 07:07:43;;;;;;;8.65;1.95;;;15.20;48.50;;;;;;5094872;28;20049;-74
2024/03/18 07:10:09;;;;;;;6.43;1.63;;;15.50;45.50;;;;;;5094896;28;20610;-73
2024/03/18 07:12:34;;;;;;;9.50;2.22;;;15.90;43.60;;;;;;5113505;28;20099;-73
2024/03/18 07:15:01;;;;;;;8.77;2.50;;;16.30;42.60;;;;;;5095489;28;20118;-73
2024/03/18 07:17:26;;;;;;;7.43;2.80;;;16.60;37.90;;;;;;5095282;28;20496;-74
2024/03/18 07:19:52;;;;;;;10.48;3.60;;;16.50;35.20;;;;;;5095431;28;20024;-72
2024/03/18 07:22:17;;;;;;;8.55;3.17;;;16.70;33.00;;;;;;5095279;28;20050;-73
2024/03/18 07:24:43;;;;;;;9.57;3.53;;;17.00;32.60;;;;;;5094884;28;20054;-73
2024/03/18 07:27:09;;;;;;;12.52;5.05;;;17.00;31.00;;;;;;5094646;28;20039;-72
2024/03/18 07:29:35;;;;;;;8.43;3.30;;;17.00;30.50;;;;;;5095420;28;20035;-73
2024/03/18 07:32:01;;;;;;;7.00;2.15;;;17.00;31.20;;;;;;5113235;28;20028;-74
2024/03/18 07:34:27;;;;;;;7.80;3.15;;;17.10;30.50;;;;;;5094843;28;20028;-73
2024/03/18 07:36:53;;;;;;;6.32;1.88;;;17.30;29.60;;;;;;5112786;28;20027;-74
2024/03/18 07:39:20;;;;;;;11.52;2.58;;;17.50;29.00;;;;;;5094469;28;20020;-73
2024/03/18 07:41:46;;;;;;;4.55;1.25;;;17.60;29.20;;;;;;5094638;28;20054;-73
2024/03/18 07:44:12;;;;;;;5.10;1.25;;;17.70;29.10;;;;;;5106713;28;20535;-73
2024/03/18 07:46:37;;;;;;;3.92;1.55;;;18.10;28.90;;;;;;5094168;28;20028;-73
2024/03/18 07:49:03;;;;;;;7.80;1.17;;;18.70;28.00;;;;;;5094517;28;20027;-74
2024/03/18 07:51:29;;;;;;;4.47;1.35;;;19.10;26.80;;;;;;5094274;28;20097;-73
2024/03/18 07:53:55;;;;;;;5.10;1.20;;;19.30;26.50;;;;;;5094267;28;20024;-74
2024/03/18 07:56:21;;;;;;;9.70;1.40;;;19.60;25.70;;;;;;5112720;28;20027;-75
2024/03/18 07:58:47;;;;;;;5.43;1.42;;;19.60;25.40;;;;;;5094184;28;20022;-72
2024/03/18 08:01:13;;;;;;;6.47;1.23;;;19.60;25.80;;;;;;5112422;28;20110;-72
2024/03/18 08:03:39;;;;;;;4.57;1.35;;;20.20;24.90;;;;;;5094148;28;20032;-74
2024/03/18 08:06:09;;;;;;;6.55;1.65;;;20.80;23.70;;;;;;5094098;28;20437;-74
2024/03/18 08:08:35;;;;;;;6.63;1.20;;;21.40;23.50;;;;;;5094053;28;20548;-74
2024/03/18 08:11:01;;;;;;;7.00;1.25;;;21.60;22.00;;;;;;5093261;28;20031;-74
2024/03/18 08:13:26;;;;;;;5.97;1.05;;;21.40;21.60;;;;;;5110766;28;20499;-74
2024/03/18 08:15:52;;;;;;;3.20;1.30;;;21.40;22.20;;;;;;5094232;28;20404;-74
2024/03/18 08:18:17;;;;;;;4.07;1.05;;;21.40;21.40;;;;;;5094086;28;20035;-72
2024/03/18 08:20:43;;;;;;;4.75;1.15;;;21.50;19.30;;;;;;5112476;28;20027;-75
2024/03/18 08:23:09;;;;;;;4.57;0.93;;;20.80;20.70;;;;;;5094107;28;20035;-75
2024/03/18 08:25:35;;;;;;;5.30;1.38;;;20.70;21.90;;;;;;5111925;28;20044;-74
2024/03/18 08:28:01;;;;;;;4.40;0.98;;;20.60;20.70;;;;;;5112150;28;20024;-75
2024/03/18 08:30:26;;;;;;;6.70;1.20;;;20.10;21.30;;;;;;5093597;28;20028;-74
2024/03/18 08:32:52;;;;;;;3.97;1.15;;;20.30;20.10;;;;;;5112184;28;20490;-74
2024/03/18 08:35:18;;;;;;;4.82;1.02;;;19.80;21.10;;;;;;5112138;28;20388;-74
2024/03/18 08:37:43;;;;;;;4.57;1.58;;;19.20;21.20;;;;;;5111705;28;20404;-73
2024/03/18 08:40:10;;;;;;;6.60;1.70;;;18.80;21.60;;;;;;5093610;28;20031;-74
2024/03/18 08:42:39;;;;;;;5.72;1.23;;;18.20;23.40;;;;;;5093598;28;20039;-74
2024/03/18 08:45:07;;;;;;;7.30;1.00;;;18.30;24.90;;;;;;5110376;28;20560;-74
2024/03/18 08:47:33;;;;;;;6.43;1.08;;;18.90;25.20;;;;;;5111565;28;20503;-74
2024/03/18 08:49:59;;;;;;;4.65;1.10;;;19.00;24.60;;;;;;5093495;28;20105;-74
2024/03/18 08:52:25;;;;;;;4.28;1.23;;;19.20;24.60;;;;;;5093432;28;20031;-73
2024/03/18 08:54:50;;;;;;;6.10;1.40;;;19.30;23.50;;;;;;5111345;28;20500;-74
2024/03/18 08:57:16;;;;;;;6.40;1.35;;;19.20;22.20;;;;;;5093076;28;20019;-74
2024/03/18 08:59:42;;;;;;;7.38;1.35;;;19.00;23.80;;;;;;5093038;28;20144;-74
2024/03/18 09:02:10;;;;;;;4.80;1.15;;;19.30;24.20;;;;;;5111308;28;20024;-75
2024/03/18 09:04:36;;;;;;;2.85;1.00;;;19.30;23.70;;;;;;5093155;28;20035;-75
2024/03/18 09:07:02;;;;;;;5.60;1.10;;;18.80;23.20;;;;;;5092941;28;20036;-74
2024/03/18 09:09:28;;;;;;;8.80;1.45;;;18.60;24.30;;;;;;5111689;28;20019;-74
2024/03/18 09:11:53;;;;;;;6.60;1.42;;;18.90;24.90;;;;;;5111281;28;20051;-73
2024/03/18 09:14:19;;;;;;;5.22;1.45;;;19.20;24.30;;;;;;5092730;28;20595;-73
2024/03/18 09:16:45;;;;;;;4.93;1.00;;;19.10;24.40;;;;;;5111350;28;20055;-75
2024/03/18 09:19:11;;;;;;;6.72;1.00;;;19.30;21.80;;;;;;5092383;28;20035;-74
2024/03/18 09:21:36;;;;;;;5.75;2.00;;;19.00;23.60;;;;;;5110973;28;20027;-74
2024/03/18 09:24:03;;;;;;;5.93;1.20;;;19.40;22.60;;;;;;5110732;28;20066;-74
2024/03/18 09:26:28;;;;;;;6.72;1.38;;;19.50;22.50;;;;;;5109637;28;20110;-74
2024/03/18 09:28:54;;;;;;;5.32;1.75;;;19.00;22.50;;;;;;5092409;28;20131;-73
2024/03/18 09:31:20;;;;;;;8.68;1.10;;;18.60;23.30;;;;;;5092765;28;20015;-74
2024/03/18 09:33:45;;;;;;;3.83;1.13;;;18.50;24.10;;;;;;5111258;28;20035;-74
2024/03/18 09:36:11;;;;;;;9.95;1.45;;;18.50;24.00;;;;;;5110956;28;20020;-74
2024/03/18 09:38:37;;;;;;;3.45;0.95;;;18.60;23.30;;;;;;5092478;28;20028;-74
2024/03/18 09:41:04;;;;;;;5.85;1.55;;;18.60;23.60;;;;;;5110764;28;20039;-74
2024/03/18 09:43:34;;;;;;;5.28;1.35;;;18.50;24.20;;;;;;5110645;28;20035;-75
2024/03/18 09:46:04;;;;;;;4.75;1.02;;;18.60;24.40;;;;;;5109372;28;20054;-74
2024/03/18 09:48:33;;;;;;;5.80;1.45;;;19.20;25.00;;;;;;5110741;28;20019;-75
2024/03/18 09:51:03;;;;;;;3.40;1.05;;;19.60;23.10;;;;;;5110628;28;20031;-74
2024/03/18 09:53:29;;;;;;;6.00;1.40;;;19.30;23.50;;;;;;5110456;28;20012;-75
2024/03/18 09:55:55;;;;;;;5.32;1.35;;;19.20;23.00;;;;;;5110359;28;20019;-74
2024/03/18 09:58:22;;;;;;;5.40;1.70;;;19.20;23.40;;;;;;5110404;28;20038;-73
2024/03/18 10:00:48;;;;;;;5.55;1.02;;;19.50;24.20;;;;;;5110401;28;20030;-74
2024/03/18 10:03:15;;;;;;;5.57;1.38;;;19.80;23.10;;;;;;5091945;28;20024;-74
2024/03/18 10:05:42;;;;;;;4.88;1.17;;;19.90;24.00;;;;;;5110234;28;20092;-75
2024/03/18 10:08:08;;;;;;;8.45;1.77;;;19.90;23.00;;;;;;5091825;28;20030;-74
2024/03/18 10:10:34;;;;;;;5.43;1.35;;;20.20;22.70;;;;;;5091955;28;20057;-73
2024/03/18 10:13:00;;;;;;;7.05;1.67;;;20.10;23.50;;;;;;5110253;28;20030;-74
2024/03/18 10:15:27;;;;;;;5.25;1.63;;;19.70;23.10;;;;;;5092221;28;20032;-74
2024/03/18 10:17:56;;;;;;;6.78;1.38;;;18.80;23.70;;;;;;5110167;28;20024;-74
2024/03/18 10:20:23;;;;;;;6.97;1.70;;;17.60;24.90;;;;;;5110258;28;20023;-74
2024/03/18 10:22:51;;;;;;;7.45;1.60;;;16.70;27.30;;;;;;5110498;28;20020;-73
2024/03/18 10:25:21;;;;;;;8.95;2.00;;;15.90;28.10;;;;;;5109832;28;20051;-72
2024/03/18 10:27:48;;;;;;;10.30;1.60;;;15.20;28.90;;;;;;5110225;28;20047;-74
2024/03/18 10:30:14;;;;;;;7.63;2.35;;;14.60;30.20;;;;;;5110291;28;20718;-74
2024/03/18 10:32:44;;;;;;;9.20;2.47;;;14.50;30.10;;;;;;5091170;28;20027;-74
2024/03/18 10:35:26;;;;;;;7.55;2.15;;;14.60;31.20;;;;;;5109930;28;20027;-74
2024/03/18 10:38:07;;;;;;;6.43;1.83;;;14.20;32.10;;;;;;5109851;28;20032;-74
2024/03/18 10:40:36;;;;;;;16.25;7.03;;;14.30;32.40;;;;;;5109940;28;20028;-74
2024/03/18 10:43:08;;;;;;;13.82;6.18;;;14.60;31.80;;;;;;5091568;28;20088;-73
2024/03/18 10:45:36;;;;;;;10.50;4.13;;;15.20;31.00;;;;;;5109641;28;20072;-74
2024/03/18 10:48:04;;;;;;;8.35;1.90;;;15.60;30.30;;;;;;5091590;28;20032;-74
2024/03/18 10:50:30;;;;;;;6.95;1.48;;;15.60;29.70;;;;;;5091350;28;20015;-73
2024/03/18 10:52:57;;;;;;;8.40;1.70;;;15.60;30.30;;;;;;5109579;28;20044;-72
2024/03/18 10:55:23;;;;;;;7.75;1.63;;;15.40;29.80;;;;;;5108376;28;20023;-74
2024/03/18 10:58:01;;;;;;;7.03;1.90;;;15.40;30.00;;;;;;5109492;28;20053;-73
2024/03/18 11:00:27;;;;;;;7.53;1.38;;;15.30;29.90;;;;;;5109516;28;20047;-72
2024/03/18 11:02:58;;;;;;;6.65;1.83;;;14.90;30.60;;;;;;5108266;28;20031;-74
2024/03/18 11:05:34;;;;;;;11.35;2.40;;;14.90;31.90;;;;;;5109461;28;20463;-73
2024/03/18 11:08:02;;;;;;;7.95;1.90;;;14.60;31.80;;;;;;5109475;28;20032;-73
2024/03/18 11:10:34;;;;;;;5.07;2.05;;;14.40;32.00;;;;;;5109446;28;20077;-74
2024/03/18 11:13:30;;;;;;;10.90;2.15;;;14.10;33.20;;;;;;5108278;28;20035;-74
2024/03/18 11:15:56;;;;;;;8.45;2.28;;;14.30;32.90;;;;;;5109617;28;20404;-74
2024/03/18 11:18:25;;;;;;;;;;;14.20;32.70;;;;;;5110000;28;20499;-74
2024/03/18 11:20:51;;;;;;;8.07;1.90;;;14.30;34.00;;;;;;5091215;28;19912;-73
2024/03/18 11:23:27;;;;;;;11.75;2.15;;;14.30;32.80;;;;;;5091125;28;20027;-73
2024/03/18 11:25:55;;;;;;;5.53;1.70;;;14.30;32.50;;;;;;5107851;28;20047;-73
2024/03/18 11:28:32;;;;;;;5.18;1.77;;;14.40;32.50;;;;;;5109344;28;20104;-73
2024/03/18 11:30:58;;;;;;;5.50;1.52;;;14.30;33.20;;;;;;5090899;28;20031;-74
2024/03/18 11:33:26;;;;;;;6.03;1.88;;;14.20;33.00;;;;;;5108381;28;20050;-72
2024/03/18 11:35:53;;;;;;;6.28;1.40;;;13.80;33.60;;;;;;5091031;28;20460;-75
2024/03/18 11:38:19;;;;;;;9.95;2.22;;;13.40;34.10;;;;;;5091052;28;20515;-74
2024/03/18 11:40:45;;;;;;;5.53;1.60;;;13.00;34.90;;;;;;5109369;28;20030;-73
2024/03/18 11:43:12;;;;;;;7.03;1.42;;;12.90;35.40;;;;;;5109212;28;20031;-74
2024/03/18 11:45:38;;;;;;;8.32;1.85;;;12.70;36.60;;;;;;5092694;28;20035;-74
2024/03/18 11:48:07;;;;;;;;;;;12.70;38.70;;;;;;5094724;28;20031;-74
2024/03/18 11:50:38;;;;;;;10.57;2.55;;;12.60;39.00;;;;;;5112943;28;20398;-74
2024/03/18 11:53:07;;;;;;;9.02;2.20;;;12.50;41.50;;;;;;5094418;28;20023;-74
2024/03/18 11:55:37;;;;;;;11.93;2.95;;;12.20;41.00;;;;;;5112740;28;20022;-73
2024/03/18 11:58:07;;;;;;;8.38;3.00;;;12.10;42.90;;;;;;5094262;28;20023;-72
2024/03/18 12:00:35;;;;;;;9.32;3.05;;;11.80;43.80;;;;;;5112674;28;20038;-73
2024/03/18 12:03:11;;;;;;;9.45;2.97;;;11.80;44.50;;;;;;5112544;28;20031;-73
2024/03/18 12:05:37;;;;;;;;;;;11.80;45.30;;;;;;5113219;28;20023;-73
2024/03/18 12:08:09;;;;;;;9.00;3.03;;;11.60;45.90;;;;;;5094351;28;19907;-73
2024/03/18 12:10:35;;;;;;;8.77;2.88;;;11.40;46.00;;;;;;5112547;28;20081;-73
2024/03/18 12:13:03;;;;;;;10.35;2.70;;;11.20;46.80;;;;;;5112679;28;20044;-73
2024/03/18 12:15:28;;;;;;;11.02;2.90;;;11.20;45.10;;;;;;5112483;28;20100;-74
2024/03/18 12:17:54;;;;;;;;;;;11.40;46.90;;;;;;5112743;28;20063;-74
2024/03/18 12:20:27;;;;;;;9.13;2.58;;;11.40;47.50;;;;;;5094054;28;19904;-71
2024/03/18 12:23:16;;;;;;;9.32;2.63;;;11.50;45.10;;;;;;5094020;28;20061;-73
2024/03/18 12:28:45;;;;;;;9.18;2.28;;;11.40;45.30;;;;;;5112211;28;20085;-74
2024/03/18 12:31:15;;;;;;;10.45;3.03;;;11.40;45.10;;;;;;5093734;28;20123;-73
2024/03/18 12:33:43;;;;;;;8.23;2.45;;;11.60;45.70;;;;;;5093920;28;20051;-74
2024/03/18 12:36:14;;;;;;;11.88;2.97;;;11.70;44.90;;;;;;5093762;28;20030;-72
2024/03/18 12:38:46;;;;;;;11.98;3.92;;;11.60;47.20;;;;;;5111828;28;20077;-73
2024/03/18 12:41:22;;;;;;;10.85;4.13;;;11.50;51.10;;;;;;5112019;28;20023;-73
2024/03/18 12:43:48;;;;;;;11.07;4.00;;;11.40;52.40;;;;;;5112114;28;20030;-73
2024/03/18 12:46:18;;;;;;;9.10;3.85;;;11.30;53.50;;;;;;5111865;28;20066;-73
2024/03/18 12:48:45;;;;;;;12.50;4.63;;;11.10;53.60;;;;;;5093389;28;20584;-73
2024/03/18 12:51:15;;;;;;;15.18;4.45;;;10.90;54.00;;;;;;5110453;28;20051;-74
2024/03/18 12:53:42;;;;;;;14.00;5.43;;;10.70;54.60;;;;;;5111898;28;20036;-73
2024/03/18 12:56:08;;;;;;;11.35;5.05;;;10.50;56.20;;;;;;5110007;28;20026;-74
2024/03/18 12:58:34;;;;;;;10.95;3.92;;;10.40;55.70;;;;;;5093274;28;20104;-73
2024/03/18 13:01:01;;;;;;;;;;;10.40;56.40;;;;;;5093935;28;20051;-74
2024/03/18 13:03:27;;;;;;;10.05;4.60;;;10.30;57.10;;;;;;5093437;28;19998;-73
2024/03/18 13:05:53;;;;;;;;;;;10.20;58.20;;;;;;5112085;28;20119;-73
2024/03/18 13:08:19;;;;;;;14.15;4.40;;;10.10;59.50;;;;;;5111528;28;19911;-72
2024/03/18 13:10:47;;;;;;;8.38;4.43;;;10.10;59.40;;;;;;5111646;28;20110;-71